sensor_id;sensor_type;location;lat;lon;timestamp;pressure;altitude;pressure_sealevel;temperature;humidity
68793;BME280;55778;54.346;10.210;2023-05-11T00:01:23;101021.16;;;11.23;100.00
68793;BME280;55778;54.346;10.210;2023-05-11T00:03:49;101022.59;;;11.27;100.00
68793;BME280;55778;54.346;10.210;2023-05-11T00:06:14;101021.59;;;11.28;100.00
68793;BME280;55778;54.346;10.210;2023-05-11T00:08:40;101018.41;;;11.23;100.00
68793;BME280;55778;54.346;10.210;2023-05-11T00:11:08;101031.06;;;11.24;100.00
68793;BME280;55778;54.346;10.210;2023-05-11T00:13:34;101026.47;;;11.25;100.00
68793;BME280;55778;54.346;10.210;2023-05-11T00:15:59;101034.34;;;11.28;100.00
68793;BME280;55778;54.346;10.210;2023-05-11T00:18:25;101026.03;;;11.29;100.00
68793;BME280;55778;54.346;10.210;2023-05-11T00:20:50;101032.19;;;11.22;100.00
68793;BME280;55778;54.346;10.210;2023-05-11T00:23:16;101029.63;;;11.20;100.00
68793;BME280;55778;54.346;10.210;2023-05-11T00:25:41;101027.75;;;11.21;100.00
68793;BME280;55778;54.346;10.210;2023-05-11T00:28:06;101031.63;;;11.28;100.00
68793;BME280;55778;54.346;10.210;2023-05-11T00:30:32;101037.22;;;11.26;100.00
68793;BME280;55778;54.346;10.210;2023-05-11T00:32:57;101039.69;;;11.20;100.00
68793;BME280;55778;54.346;10.210;2023-05-11T00:35:23;101044.28;;;11.19;100.00
68793;BME280;55778;54.346;10.210;2023-05-11T00:37:48;101032.63;;;11.27;100.00
68793;BME280;55778;54.346;10.210;2023-05-11T00:40:14;101036.25;;;11.27;100.00
68793;BME280;55778;54.346;10.210;2023-05-11T00:42:39;101038.38;;;11.24;100.00
68793;BME280;55778;54.346;10.210;2023-05-11T00:45:05;101035.38;;;11.27;100.00
68793;BME280;55778;54.346;10.210;2023-05-11T00:47:30;101034.94;;;11.31;100.00
68793;BME280;55778;54.346;10.210;2023-05-11T00:49:57;101036.38;;;11.35;100.00
68793;BME280;55778;54.346;10.210;2023-05-11T00:52:22;101030.06;;;11.25;100.00
68793;BME280;55778;54.346;10.210;2023-05-11T00:54:48;101029.03;;;11.26;100.00
68793;BME280;55778;54.346;10.210;2023-05-11T00:57:14;101039.41;;;11.23;100.00
68793;BME280;55778;54.346;10.210;2023-05-11T00:59:39;101036.78;;;11.31;100.00
68793;BME280;55778;54.346;10.210;2023-05-11T01:02:05;101031.34;;;11.31;100.00
68793;BME280;55778;54.346;10.210;2023-05-11T01:04:31;101035.09;;;11.30;100.00
68793;BME280;55778;54.346;10.210;2023-05-11T01:12:39;101043.56;;;11.27;100.00
68793;BME280;55778;54.346;10.210;2023-05-11T01:20:47;101044.72;;;11.24;100.00
68793;BME280;55778;54.346;10.210;2023-05-11T01:28:51;101057.06;;;11.28;100.00
68793;BME280;55778;54.346;10.210;2023-05-11T01:31:27;101050.03;;;11.26;100.00
68793;BME280;55778;54.346;10.210;2023-05-11T01:33:57;101058.22;;;11.26;100.00
68793;BME280;55778;54.346;10.210;2023-05-11T01:36:29;101054.75;;;11.24;100.00
68793;BME280;55778;54.346;10.210;2023-05-11T01:39:00;101055.34;;;11.27;100.00
68793;BME280;55778;54.346;10.210;2023-05-11T01:41:28;101061.78;;;11.26;100.00
68793;BME280;55778;54.346;10.210;2023-05-11T01:43:57;101060.38;;;11.32;100.00
68793;BME280;55778;54.346;10.210;2023-05-11T01:46:26;101068.84;;;11.29;100.00
68793;BME280;55778;54.346;10.210;2023-05-11T01:48:55;101069.53;;;11.31;100.00
68793;BME280;55778;54.346;10.210;2023-05-11T01:51:25;101057.94;;;11.29;100.00
68793;BME280;55778;54.346;10.210;2023-05-11T01:53:51;101065.22;;;11.28;100.00
68793;BME280;55778;54.346;10.210;2023-05-11T01:56:20;101060.94;;;11.26;100.00
68793;BME280;55778;54.346;10.210;2023-05-11T01:58:47;101064.66;;;11.25;100.00
68793;BME280;55778;54.346;10.210;2023-05-11T02:01:15;101063.94;;;11.23;100.00
68793;BME280;55778;54.346;10.210;2023-05-11T02:03:45;101063.38;;;11.19;100.00
68793;BME280;55778;54.346;10.210;2023-05-11T02:06:13;101066.69;;;11.23;100.00
68793;BME280;55778;54.346;10.210;2023-05-11T02:08:40;101068.25;;;11.25;100.00
68793;BME280;55778;54.346;10.210;2023-05-11T02:11:07;101072.00;;;11.24;100.00
68793;BME280;55778;54.346;10.210;2023-05-11T02:13:35;101068.25;;;11.25;100.00
68793;BME280;55778;54.346;10.210;2023-05-11T02:16:02;101062.94;;;11.33;100.00
68793;BME280;55778;54.346;10.210;2023-05-11T02:18:29;101069.09;;;11.35;100.00
68793;BME280;55778;54.346;10.210;2023-05-11T02:20:57;101067.81;;;11.30;100.00
68793;BME280;55778;54.346;10.210;2023-05-11T02:23:24;101072.56;;;11.37;100.00
68793;BME280;55778;54.346;10.210;2023-05-11T02:25:51;101079.19;;;11.35;100.00
68793;BME280;55778;54.346;10.210;2023-05-11T02:28:18;101078.28;;;11.15;100.00
68793;BME280;55778;54.346;10.210;2023-05-11T02:30:47;101078.84;;;11.19;100.00
68793;BME280;55778;54.346;10.210;2023-05-11T02:33:19;101077.59;;;11.23;100.00
68793;BME280;55778;54.346;10.210;2023-05-11T02:35:49;101082.03;;;11.24;100.00
68793;BME280;55778;54.346;10.210;2023-05-11T02:38:16;101085.47;;;11.16;100.00
68793;BME280;55778;54.346;10.210;2023-05-11T02:40:48;101083.88;;;11.23;100.00
68793;BME280;55778;54.346;10.210;2023-05-11T02:43:23;101086.91;;;11.20;100.00
68793;BME280;55778;54.346;10.210;2023-05-11T02:45:51;101089.34;;;11.14;100.00
68793;BME280;55778;54.346;10.210;2023-05-11T02:48:27;101094.25;;;11.20;100.00
68793;BME280;55778;54.346;10.210;2023-05-11T02:50:54;101090.63;;;11.19;100.00
68793;BME280;55778;54.346;10.210;2023-05-11T02:53:22;101093.50;;;11.18;100.00
68793;BME280;55778;54.346;10.210;2023-05-11T02:55:50;101105.16;;;11.20;100.00
68793;BME280;55778;54.346;10.210;2023-05-11T02:58:17;101092.34;;;11.20;100.00
68793;BME280;55778;54.346;10.210;2023-05-11T03:00:42;101106.88;;;11.21;100.00
68793;BME280;55778;54.346;10.210;2023-05-11T03:03:08;101098.09;;;11.17;100.00
68793;BME280;55778;54.346;10.210;2023-05-11T03:05:33;101097.53;;;11.14;100.00
68793;BME280;55778;54.346;10.210;2023-05-11T03:07:59;101105.44;;;11.17;100.00
68793;BME280;55778;54.346;10.210;2023-05-11T03:10:25;101104.09;;;11.11;100.00
68793;BME280;55778;54.346;10.210;2023-05-11T03:12:52;101107.56;;;11.13;100.00
68793;BME280;55778;54.346;10.210;2023-05-11T03:15:18;101110.16;;;11.15;100.00
68793;BME280;55778;54.346;10.210;2023-05-11T03:17:45;101110.03;;;11.16;100.00
68793;BME280;55778;54.346;10.210;2023-05-11T03:20:11;101108.31;;;11.15;100.00
68793;BME280;55778;54.346;10.210;2023-05-11T03:22:38;101111.88;;;11.16;100.00
68793;BME280;55778;54.346;10.210;2023-05-11T03:25:04;101115.47;;;11.16;100.00
68793;BME280;55778;54.346;10.210;2023-05-11T03:27:32;101119.03;;;11.07;100.00
68793;BME280;55778;54.346;10.210;2023-05-11T03:29:59;101107.25;;;11.07;100.00
68793;BME280;55778;54.346;10.210;2023-05-11T03:32:25;101109.16;;;11.06;100.00
68793;BME280;55778;54.346;10.210;2023-05-11T03:34:51;101110.72;;;11.09;100.00
68793;BME280;55778;54.346;10.210;2023-05-11T03:37:17;101109.16;;;11.16;100.00
68793;BME280;55778;54.346;10.210;2023-05-11T03:39:46;101111.16;;;11.14;100.00
68793;BME280;55778;54.346;10.210;2023-05-11T03:42:13;101111.31;;;11.22;100.00
68793;BME280;55778;54.346;10.210;2023-05-11T03:44:41;101104.97;;;11.12;100.00
68793;BME280;55778;54.346;10.210;2023-05-11T03:47:08;101111.31;;;11.12;100.00
68793;BME280;55778;54.346;10.210;2023-05-11T03:49:35;101111.31;;;11.12;100.00
68793;BME280;55778;54.346;10.210;2023-05-11T03:52:04;101110.56;;;11.10;100.00
68793;BME280;55778;54.346;10.210;2023-05-11T03:54:29;101111.72;;;11.08;100.00
68793;BME280;55778;54.346;10.210;2023-05-11T03:56:55;101118.03;;;11.08;100.00
68793;BME280;55778;54.346;10.210;2023-05-11T03:59:21;101119.34;;;11.14;100.00
68793;BME280;55778;54.346;10.210;2023-05-11T04:01:47;101112.72;;;11.07;100.00
68793;BME280;55778;54.346;10.210;2023-05-11T04:04:15;101114.03;;;11.12;100.00
68793;BME280;55778;54.346;10.210;2023-05-11T04:06:41;101108.00;;;11.09;100.00
68793;BME280;55778;54.346;10.210;2023-05-11T04:09:06;101113.75;;;11.15;100.00
68793;BME280;55778;54.346;10.210;2023-05-11T04:11:35;101120.75;;;11.08;100.00
68793;BME280;55778;54.346;10.210;2023-05-11T04:14:00;101122.78;;;11.16;100.00
68793;BME280;55778;54.346;10.210;2023-05-11T04:16:26;101128.09;;;11.17;100.00
68793;BME280;55778;54.346;10.210;2023-05-11T04:18:51;101118.50;;;11.23;100.00
68793;BME280;55778;54.346;10.210;2023-05-11T04:21:16;101123.09;;;11.22;100.00
68793;BME280;55778;54.346;10.210;2023-05-11T04:23:42;101121.53;;;11.20;100.00
68793;BME280;55778;54.346;10.210;2023-05-11T04:26:07;101121.78;;;11.26;100.00
68793;BME280;55778;54.346;10.210;2023-05-11T04:28:32;101127.41;;;11.34;100.00
68793;BME280;55778;54.346;10.210;2023-05-11T04:30:58;101125.72;;;11.33;100.00
68793;BME280;55778;54.346;10.210;2023-05-11T04:33:23;101128.56;;;11.32;100.00
68793;BME280;55778;54.346;10.210;2023-05-11T04:35:53;101124.66;;;11.25;100.00
68793;BME280;55778;54.346;10.210;2023-05-11T04:38:19;101131.88;;;11.26;100.00
68793;BME280;55778;54.346;10.210;2023-05-11T04:40:45;101130.25;;;11.23;100.00
68793;BME280;55778;54.346;10.210;2023-05-11T04:43:15;101124.69;;;11.34;100.00
68793;BME280;55778;54.346;10.210;2023-05-11T04:45:40;101133.75;;;11.44;100.00
68793;BME280;55778;54.346;10.210;2023-05-11T04:48:06;101133.59;;;11.46;100.00
68793;BME280;55778;54.346;10.210;2023-05-11T04:50:32;101138.91;;;11.47;100.00
68793;BME280;55778;54.346;10.210;2023-05-11T04:52:57;101137.78;;;11.40;100.00
68793;BME280;55778;54.346;10.210;2023-05-11T04:55:23;101136.75;;;11.41;100.00
68793;BME280;55778;54.346;10.210;2023-05-11T04:57:48;101133.00;;;11.42;100.00
68793;BME280;55778;54.346;10.210;2023-05-11T05:00:14;101141.38;;;11.50;100.00
68793;BME280;55778;54.346;10.210;2023-05-11T05:02:39;101138.34;;;11.53;100.00
68793;BME280;55778;54.346;10.210;2023-05-11T05:05:05;101133.75;;;11.54;100.00
68793;BME280;55778;54.346;10.210;2023-05-11T05:07:30;101136.06;;;11.58;100.00
68793;BME280;55778;54.346;10.210;2023-05-11T05:09:56;101140.09;;;11.73;100.00
68793;BME280;55778;54.346;10.210;2023-05-11T05:12:21;101138.97;;;11.76;100.00
68793;BME280;55778;54.346;10.210;2023-05-11T05:14:46;101143.41;;;11.77;100.00
68793;BME280;55778;54.346;10.210;2023-05-11T05:17:12;101148.88;;;11.77;100.00
68793;BME280;55778;54.346;10.210;2023-05-11T05:19:37;101143.84;;;11.82;100.00
68793;BME280;55778;54.346;10.210;2023-05-11T05:22:03;101153.59;;;11.75;100.00
68793;BME280;55778;54.346;10.210;2023-05-11T05:24:29;101147.16;;;11.76;100.00
68793;BME280;55778;54.346;10.210;2023-05-11T05:26:54;101146.56;;;11.72;100.00
68793;BME280;55778;54.346;10.210;2023-05-11T05:29:20;101155.31;;;11.85;100.00
68793;BME280;55778;54.346;10.210;2023-05-11T05:31:45;101148.03;;;11.67;100.00
68793;BME280;55778;54.346;10.210;2023-05-11T05:34:11;101151.59;;;11.77;100.00
68793;BME280;55778;54.346;10.210;2023-05-11T05:36:36;101155.50;;;11.74;100.00
68793;BME280;55778;54.346;10.210;2023-05-11T05:39:02;101156.47;;;11.73;100.00
68793;BME280;55778;54.346;10.210;2023-05-11T05:41:32;101155.78;;;12.00;100.00
68793;BME280;55778;54.346;10.210;2023-05-11T05:43:57;101160.66;;;11.96;100.00
68793;BME280;55778;54.346;10.210;2023-05-11T05:46:23;101165.13;;;11.88;100.00
68793;BME280;55778;54.346;10.210;2023-05-11T05:48:48;101166.53;;;11.92;100.00
68793;BME280;55778;54.346;10.210;2023-05-11T05:51:14;101176.31;;;12.04;100.00
68793;BME280;55778;54.346;10.210;2023-05-11T05:53:39;101178.31;;;12.12;100.00
68793;BME280;55778;54.346;10.210;2023-05-11T05:56:05;101172.84;;;12.02;100.00
68793;BME280;55778;54.346;10.210;2023-05-11T05:58:30;101182.38;;;12.07;100.00
68793;BME280;55778;54.346;10.210;2023-05-11T06:00:56;101175.59;;;12.02;100.00
68793;BME280;55778;54.346;10.210;2023-05-11T06:03:21;101183.22;;;12.08;100.00
68793;BME280;55778;54.346;10.210;2023-05-11T06:05:46;101181.78;;;12.04;100.00
68793;BME280;55778;54.346;10.210;2023-05-11T06:08:12;101190.41;;;11.90;100.00
68793;BME280;55778;54.346;10.210;2023-05-11T06:10:37;101185.81;;;11.90;100.00
68793;BME280;55778;54.346;10.210;2023-05-11T06:13:03;101194.31;;;11.97;100.00
68793;BME280;55778;54.346;10.210;2023-05-11T06:15:28;101192.69;;;12.23;100.00
68793;BME280;55778;54.346;10.210;2023-05-11T06:17:53;101188.34;;;12.30;100.00
68793;BME280;55778;54.346;10.210;2023-05-11T06:20:22;101187.94;;;12.16;100.00
68793;BME280;55778;54.346;10.210;2023-05-11T06:22:48;101184.66;;;12.02;100.00
68793;BME280;55778;54.346;10.210;2023-05-11T06:25:13;101183.50;;;12.05;100.00
68793;BME280;55778;54.346;10.210;2023-05-11T06:27:39;101187.38;;;12.12;100.00
68793;BME280;55778;54.346;10.210;2023-05-11T06:30:05;101195.41;;;12.23;100.00
68793;BME280;55778;54.346;10.210;2023-05-11T06:32:32;101192.41;;;12.07;100.00
68793;BME280;55778;54.346;10.210;2023-05-11T06:34:58;101189.53;;;11.99;100.00
68793;BME280;55778;54.346;10.210;2023-05-11T06:37:23;101193.69;;;12.13;100.00
68793;BME280;55778;54.346;10.210;2023-05-11T06:39:48;101193.41;;;12.16;100.00
68793;BME280;55778;54.346;10.210;2023-05-11T06:42:14;101195.69;;;12.10;100.00
68793;BME280;55778;54.346;10.210;2023-05-11T06:44:39;101192.41;;;12.26;100.00
68793;BME280;55778;54.346;10.210;2023-05-11T06:47:08;101190.56;;;12.07;100.00
68793;BME280;55778;54.346;10.210;2023-05-11T06:49:33;101193.16;;;12.09;100.00
68793;BME280;55778;54.346;10.210;2023-05-11T06:51:59;101196.59;;;12.21;100.00
68793;BME280;55778;54.346;10.210;2023-05-11T06:54:24;101203.75;;;12.22;100.00
68793;BME280;55778;54.346;10.210;2023-05-11T06:56:50;101204.31;;;12.35;100.00
68793;BME280;55778;54.346;10.210;2023-05-11T06:59:15;101197.28;;;12.42;100.00
68793;BME280;55778;54.346;10.210;2023-05-11T07:01:40;101198.25;;;12.41;100.00
68793;BME280;55778;54.346;10.210;2023-05-11T07:04:06;101199.09;;;12.51;100.00
68793;BME280;55778;54.346;10.210;2023-05-11T07:06:31;101199.44;;;12.38;100.00
68793;BME280;55778;54.346;10.210;2023-05-11T07:08:57;101208.94;;;12.25;100.00
68793;BME280;55778;54.346;10.210;2023-05-11T07:11:23;101206.34;;;12.33;100.00
68793;BME280;55778;54.346;10.210;2023-05-11T07:13:49;101207.03;;;12.44;100.00
68793;BME280;55778;54.346;10.210;2023-05-11T07:16:15;101209.28;;;12.68;100.00
68793;BME280;55778;54.346;10.210;2023-05-11T07:18:40;101209.81;;;12.81;100.00
68793;BME280;55778;54.346;10.210;2023-05-11T07:21:05;101206.47;;;12.87;100.00
68793;BME280;55778;54.346;10.210;2023-05-11T07:23:31;101205.16;;;13.00;100.00
68793;BME280;55778;54.346;10.210;2023-05-11T07:25:56;101207.44;;;12.95;100.00
68793;BME280;55778;54.346;10.210;2023-05-11T07:28:22;101216.53;;;12.86;100.00
68793;BME280;55778;54.346;10.210;2023-05-11T07:30:48;101209.31;;;13.04;100.00
68793;BME280;55778;54.346;10.210;2023-05-11T07:33:13;101203.97;;;13.39;100.00
68793;BME280;55778;54.346;10.210;2023-05-11T07:35:38;101203.19;;;13.47;100.00
68793;BME280;55778;54.346;10.210;2023-05-11T07:38:04;101212.75;;;13.16;100.00
68793;BME280;55778;54.346;10.210;2023-05-11T07:40:32;101215.66;;;13.05;100.00
68793;BME280;55778;54.346;10.210;2023-05-11T07:42:57;101212.34;;;13.01;100.00
68793;BME280;55778;54.346;10.210;2023-05-11T07:45:23;101224.56;;;12.61;100.00
68793;BME280;55778;54.346;10.210;2023-05-11T07:47:48;101233.25;;;12.37;100.00
68793;BME280;55778;54.346;10.210;2023-05-11T07:50:14;101234.19;;;12.55;100.00
68793;BME280;55778;54.346;10.210;2023-05-11T07:52:39;101231.25;;;12.85;100.00
68793;BME280;55778;54.346;10.210;2023-05-11T07:55:05;101220.69;;;13.00;100.00
68793;BME280;55778;54.346;10.210;2023-05-11T07:57:30;101226.19;;;13.00;100.00
68793;BME280;55778;54.346;10.210;2023-05-11T07:59:55;101235.06;;;13.11;100.00
68793;BME280;55778;54.346;10.210;2023-05-11T08:02:21;101236.72;;;13.22;100.00
68793;BME280;55778;54.346;10.210;2023-05-11T08:04:46;101235.28;;;13.27;100.00
68793;BME280;55778;54.346;10.210;2023-05-11T08:07:11;101242.00;;;13.06;100.00
68793;BME280;55778;54.346;10.210;2023-05-11T08:09:37;101242.31;;;13.57;100.00
68793;BME280;55778;54.346;10.210;2023-05-11T08:12:02;101250.34;;;13.04;100.00
68793;BME280;55778;54.346;10.210;2023-05-11T08:14:28;101246.47;;;12.97;100.00
68793;BME280;55778;54.346;10.210;2023-05-11T08:16:53;101255.91;;;12.76;100.00
68793;BME280;55778;54.346;10.210;2023-05-11T08:19:18;101256.06;;;12.74;100.00
68793;BME280;55778;54.346;10.210;2023-05-11T08:21:44;101255.03;;;12.75;100.00
68793;BME280;55778;54.346;10.210;2023-05-11T08:24:11;101259.31;;;12.87;100.00
68793;BME280;55778;54.346;10.210;2023-05-11T08:26:37;101246.53;;;13.24;100.00
68793;BME280;55778;54.346;10.210;2023-05-11T08:29:02;101262.94;;;12.78;100.00
68793;BME280;55778;54.346;10.210;2023-05-11T08:31:29;101263.28;;;13.12;100.00
68793;BME280;55778;54.346;10.210;2023-05-11T08:33:54;101261.97;;;12.51;100.00
68793;BME280;55778;54.346;10.210;2023-05-11T08:36:19;101269.50;;;12.30;100.00
68793;BME280;55778;54.346;10.210;2023-05-11T08:38:45;101273.19;;;12.48;100.00
68793;BME280;55778;54.346;10.210;2023-05-11T08:41:11;101273.09;;;12.21;100.00
68793;BME280;55778;54.346;10.210;2023-05-11T08:43:38;101276.66;;;12.31;100.00
68793;BME280;55778;54.346;10.210;2023-05-11T08:46:05;101280.13;;;12.52;100.00
68793;BME280;55778;54.346;10.210;2023-05-11T08:48:34;101274.63;;;12.61;100.00
68793;BME280;55778;54.346;10.210;2023-05-11T08:51:00;101277.34;;;12.61;100.00
68793;BME280;55778;54.346;10.210;2023-05-11T08:53:27;101286.00;;;12.66;100.00
68793;BME280;55778;54.346;10.210;2023-05-11T08:55:54;101277.34;;;12.61;100.00
68793;BME280;55778;54.346;10.210;2023-05-11T08:58:22;101279.97;;;12.53;100.00
68793;BME280;55778;54.346;10.210;2023-05-11T09:00:48;101280.22;;;12.60;100.00
68793;BME280;55778;54.346;10.210;2023-05-11T09:03:17;101281.78;;;12.72;100.00
68793;BME280;55778;54.346;10.210;2023-05-11T09:05:48;101281.53;;;12.65;100.00
68793;BME280;55778;54.346;10.210;2023-05-11T09:08:14;101290.63;;;12.47;100.00
68793;BME280;55778;54.346;10.210;2023-05-11T09:10:42;101279.38;;;12.50;100.00
68793;BME280;55778;54.346;10.210;2023-05-11T09:13:08;101281.25;;;12.59;100.00
68793;BME280;55778;54.346;10.210;2023-05-11T09:15:34;101285.00;;;12.20;100.00
68793;BME280;55778;54.346;10.210;2023-05-11T09:17:59;101277.94;;;12.36;100.00
68793;BME280;55778;54.346;10.210;2023-05-11T09:20:29;101281.56;;;12.46;100.00
68793;BME280;55778;54.346;10.210;2023-05-11T09:22:58;101284.44;;;12.16;100.00
68793;BME280;55778;54.346;10.210;2023-05-11T09:25:24;101285.41;;;11.96;100.00
68793;BME280;55778;54.346;10.210;2023-05-11T09:27:50;101279.81;;;12.17;100.00
68793;BME280;55778;54.346;10.210;2023-05-11T09:30:21;101278.25;;;12.33;100.00
68793;BME280;55778;54.346;10.210;2023-05-11T09:35:34;101279.13;;;12.15;100.00
68793;BME280;55778;54.346;10.210;2023-05-11T09:38:01;101273.38;;;12.46;100.00
68793;BME280;55778;54.346;10.210;2023-05-11T09:40:28;101274.34;;;12.55;100.00
68793;BME280;55778;54.346;10.210;2023-05-11T09:42:53;101281.97;;;12.61;100.00
68793;BME280;55778;54.346;10.210;2023-05-11T09:45:43;101286.72;;;12.68;100.00
68793;BME280;55778;54.346;10.210;2023-05-11T09:50:43;101265.72;;;12.59;100.00
68793;BME280;55778;54.346;10.210;2023-05-11T09:53:08;101280.09;;;12.61;100.00
68793;BME280;55778;54.346;10.210;2023-05-11T09:55:35;101285.63;;;13.07;100.00
68793;BME280;55778;54.346;10.210;2023-05-11T09:58:01;101280.38;;;13.23;100.00
68793;BME280;55778;54.346;10.210;2023-05-11T10:00:26;101292.28;;;12.86;100.00
68793;BME280;55778;54.346;10.210;2023-05-11T10:03:06;101305.84;;;12.30;100.00
68793;BME280;55778;54.346;10.210;2023-05-11T10:05:34;101298.22;;;12.24;100.00
68793;BME280;55778;54.346;10.210;2023-05-11T10:08:03;101304.28;;;12.28;100.00
68793;BME280;55778;54.346;10.210;2023-05-11T10:10:33;101305.16;;;12.19;100.00
68793;BME280;55778;54.346;10.210;2023-05-11T10:13:00;101301.69;;;12.26;100.00
68793;BME280;55778;54.346;10.210;2023-05-11T10:15:27;101296.94;;;12.19;100.00
68793;BME280;55778;54.346;10.210;2023-05-11T10:17:54;101292.19;;;12.30;100.00
68793;BME280;55778;54.346;10.210;2023-05-11T10:20:20;101286.59;;;12.03;100.00
68793;BME280;55778;54.346;10.210;2023-05-11T10:22:46;101289.31;;;12.13;100.00
68793;BME280;55778;54.346;10.210;2023-05-11T10:25:13;101286.88;;;12.29;100.00
68793;BME280;55778;54.346;10.210;2023-05-11T10:27:39;101277.69;;;12.20;100.00
68793;BME280;55778;54.346;10.210;2023-05-11T10:30:06;101275.66;;;11.93;100.00
68793;BME280;55778;54.346;10.210;2023-05-11T10:32:35;101283.69;;;11.95;100.00
68793;BME280;55778;54.346;10.210;2023-05-11T10:35:07;101284.56;;;12.05;100.00
68793;BME280;55778;54.346;10.210;2023-05-11T10:37:34;101281.84;;;12.24;100.00
68793;BME280;55778;54.346;10.210;2023-05-11T10:39:59;101275.19;;;12.55;100.00
68793;BME280;55778;54.346;10.210;2023-05-11T10:45:27;101269.09;;;12.99;100.00
68793;BME280;55778;54.346;10.210;2023-05-11T11:01:34;101268.53;;;14.22;100.00
68793;BME280;55778;54.346;10.210;2023-05-11T11:04:08;101266.41;;;14.16;100.00
68793;BME280;55778;54.346;10.210;2023-05-11T11:06:35;101265.16;;;14.10;100.00
68793;BME280;55778;54.346;10.210;2023-05-11T11:09:03;101269.03;;;14.52;100.00
68793;BME280;55778;54.346;10.210;2023-05-11T11:13:56;101268.16;;;14.52;100.00
68793;BME280;55778;54.346;10.210;2023-05-11T11:16:22;101265.16;;;14.88;100.00
68793;BME280;55778;54.346;10.210;2023-05-11T11:18:49;101272.56;;;14.88;98.81
68793;BME280;55778;54.346;10.210;2023-05-11T11:21:38;101263.03;;;15.00;98.98
68793;BME280;55778;54.346;10.210;2023-05-11T11:24:03;101261.94;;;15.18;97.21
68793;BME280;55778;54.346;10.210;2023-05-11T11:26:46;101265.50;;;15.78;95.02
68793;BME280;55778;54.346;10.210;2023-05-11T11:29:12;101265.88;;;15.91;92.84
68793;BME280;55778;54.346;10.210;2023-05-11T11:31:40;101265.16;;;15.89;92.63
68793;BME280;55778;54.346;10.210;2023-05-11T11:42:12;101269.81;;;15.96;90.11
68793;BME280;55778;54.346;10.210;2023-05-11T11:44:39;101262.88;;;16.42;90.58
68793;BME280;55778;54.346;10.210;2023-05-11T11:47:18;101262.72;;;16.76;89.31
68793;BME280;55778;54.346;10.210;2023-05-11T11:49:46;101262.84;;;15.60;92.89
68793;BME280;55778;54.346;10.210;2023-05-11T11:54:50;101269.28;;;15.85;95.80
68793;BME280;55778;54.346;10.210;2023-05-11T12:00:01;101270.75;;;15.04;98.99
68793;BME280;55778;54.346;10.210;2023-05-11T12:02:30;101268.72;;;15.06;100.00
68793;BME280;55778;54.346;10.210;2023-05-11T12:05:14;101262.84;;;16.18;95.99
68793;BME280;55778;54.346;10.210;2023-05-11T12:07:48;101260.63;;;16.62;92.10
68793;BME280;55778;54.346;10.210;2023-05-11T12:10:18;101257.34;;;16.90;89.16
68793;BME280;55778;54.346;10.210;2023-05-11T12:12:48;101265.63;;;16.74;89.89
68793;BME280;55778;54.346;10.210;2023-05-11T12:15:24;101271.16;;;15.76;92.70
68793;BME280;55778;54.346;10.210;2023-05-11T12:17:50;101263.56;;;16.36;92.37
68793;BME280;55778;54.346;10.210;2023-05-11T12:20:17;101262.72;;;16.52;92.84
68793;BME280;55778;54.346;10.210;2023-05-11T12:22:45;101270.34;;;15.42;95.72
68793;BME280;55778;54.346;10.210;2023-05-11T12:25:16;101259.06;;;16.27;95.29
68793;BME280;55778;54.346;10.210;2023-05-11T12:28:00;101265.44;;;17.00;91.93
68793;BME280;55778;54.346;10.210;2023-05-11T12:30:32;101256.03;;;17.88;85.84
68793;BME280;55778;54.346;10.210;2023-05-11T12:32:58;101265.06;;;18.27;82.95
68793;BME280;55778;54.346;10.210;2023-05-11T12:35:27;101254.63;;;17.83;82.41
68793;BME280;55778;54.346;10.210;2023-05-11T12:37:53;101257.06;;;17.40;86.65
68793;BME280;55778;54.346;10.210;2023-05-11T12:40:19;101253.63;;;17.84;84.17
68793;BME280;55778;54.346;10.210;2023-05-11T12:42:51;101253.31;;;18.78;78.94
68793;BME280;55778;54.346;10.210;2023-05-11T12:45:18;101255.78;;;18.87;79.39
68793;BME280;55778;54.346;10.210;2023-05-11T12:47:46;101253.00;;;19.68;74.92
68793;BME280;55778;54.346;10.210;2023-05-11T12:50:12;101254.81;;;19.61;74.61
68793;BME280;55778;54.346;10.210;2023-05-11T12:52:38;101257.31;;;20.63;71.07
68793;BME280;55778;54.346;10.210;2023-05-11T12:55:04;101250.13;;;20.47;69.11
68793;BME280;55778;54.346;10.210;2023-05-11T12:57:29;101245.81;;;20.66;68.97
68793;BME280;55778;54.346;10.210;2023-05-11T13:02:30;101245.13;;;19.36;72.92
68793;BME280;55778;54.346;10.210;2023-05-11T13:04:56;101246.56;;;19.97;71.35
68793;BME280;55778;54.346;10.210;2023-05-11T13:07:26;101251.06;;;18.59;75.37
68793;BME280;55778;54.346;10.210;2023-05-11T13:09:59;101243.53;;;18.90;76.24
68793;BME280;55778;54.346;10.210;2023-05-11T13:12:26;101245.72;;;18.94;74.90
68793;BME280;55778;54.346;10.210;2023-05-11T13:15:08;101243.53;;;18.90;73.63
68793;BME280;55778;54.346;10.210;2023-05-11T13:17:38;101242.97;;;18.57;77.05
68793;BME280;55778;54.346;10.210;2023-05-11T13:20:23;101245.22;;;17.70;78.84
68793;BME280;55778;54.346;10.210;2023-05-11T13:23:10;101250.72;;;17.78;81.15
68793;BME280;55778;54.346;10.210;2023-05-11T13:28:13;101246.47;;;17.21;83.38
68793;BME280;55778;54.346;10.210;2023-05-11T13:30:39;101241.41;;;17.79;81.50